sensor_id;sensor_type;location;lat;lon;timestamp;pressure;altitude;pressure_sealevel;temperature;humidity
31761;BME280;18335;51.486;7.562;2023-05-19T00:01:13;101247.59;;;7.10;100.00
31761;BME280;18335;51.486;7.562;2023-05-19T00:03:48;101249.47;;;6.86;100.00
31761;BME280;18335;51.486;7.562;2023-05-19T00:06:20;101249.16;;;7.02;100.00
31761;BME280;18335;51.486;7.562;2023-05-19T00:08:48;101250.38;;;6.98;100.00
31761;BME280;18335;51.486;7.562;2023-05-19T00:11:16;101246.63;;;6.88;100.00
31761;BME280;18335;51.486;7.562;2023-05-19T00:13:45;101242.94;;;6.89;100.00
31761;BME280;18335;51.486;7.562;2023-05-19T00:16:14;101237.94;;;6.95;100.00
31761;BME280;18335;51.486;7.562;2023-05-19T00:18:41;101240.34;;;6.87;100.00
31761;BME280;18335;51.486;7.562;2023-05-19T00:21:08;101238.81;;;6.96;100.00
31761;BME280;18335;51.486;7.562;2023-05-19T00:23:35;101242.47;;;6.95;100.00
31761;BME280;18335;51.486;7.562;2023-05-19T00:26:02;101235.00;;;6.75;100.00
31761;BME280;18335;51.486;7.562;2023-05-19T00:28:29;101231.97;;;6.55;100.00
31761;BME280;18335;51.486;7.562;2023-05-19T00:30:57;101236.97;;;6.73;100.00
31761;BME280;18335;51.486;7.562;2023-05-19T00:33:24;101240.22;;;6.54;100.00
31761;BME280;18335;51.486;7.562;2023-05-19T00:35:51;101231.00;;;6.56;100.00
31761;BME280;18335;51.486;7.562;2023-05-19T00:38:18;101235.41;;;6.57;100.00
31761;BME280;18335;51.486;7.562;2023-05-19T00:40:45;101231.69;;;6.47;100.00
31761;BME280;18335;51.486;7.562;2023-05-19T00:43:12;101238.34;;;6.54;100.00
31761;BME280;18335;51.486;7.562;2023-05-19T00:45:39;101233.16;;;6.51;100.00
31761;BME280;18335;51.486;7.562;2023-05-19T00:48:07;101232.31;;;6.51;100.00
31761;BME280;18335;51.486;7.562;2023-05-19T00:50:34;101242.91;;;6.30;100.00
31761;BME280;18335;51.486;7.562;2023-05-19T00:53:02;101242.59;;;6.22;100.00
31761;BME280;18335;51.486;7.562;2023-05-19T00:55:30;101234.06;;;6.39;100.00
31761;BME280;18335;51.486;7.562;2023-05-19T00:57:57;101231.38;;;6.39;100.00
31761;BME280;18335;51.486;7.562;2023-05-19T01:00:25;101235.31;;;6.35;100.00
31761;BME280;18335;51.486;7.562;2023-05-19T01:02:52;101237.59;;;6.29;100.00
31761;BME280;18335;51.486;7.562;2023-05-19T01:05:21;101232.22;;;6.16;100.00
31761;BME280;18335;51.486;7.562;2023-05-19T01:07:48;101239.16;;;6.20;100.00
31761;BME280;18335;51.486;7.562;2023-05-19T01:10:18;101234.59;;;6.21;100.00
31761;BME280;18335;51.486;7.562;2023-05-19T01:12:45;101234.63;;;6.08;100.00
31761;BME280;18335;51.486;7.562;2023-05-19T01:15:12;101236.84;;;6.03;100.00
31761;BME280;18335;51.486;7.562;2023-05-19T01:17:44;101240.56;;;6.13;100.00
31761;BME280;18335;51.486;7.562;2023-05-19T01:20:16;101235.31;;;5.99;100.00
31761;BME280;18335;51.486;7.562;2023-05-19T01:26:08;101235.75;;;5.93;100.00
31761;BME280;18335;51.486;7.562;2023-05-19T01:31:36;101240.72;;;5.99;100.00
31761;BME280;18335;51.486;7.562;2023-05-19T01:34:05;101230.75;;;5.99;100.00
31761;BME280;18335;51.486;7.562;2023-05-19T01:36:32;101226.88;;;5.91;100.00
31761;BME280;18335;51.486;7.562;2023-05-19T01:39:00;101231.88;;;5.97;100.00
31761;BME280;18335;51.486;7.562;2023-05-19T01:41:29;101230.00;;;5.85;100.00
31761;BME280;18335;51.486;7.562;2023-05-19T01:43:57;101228.94;;;5.75;100.00
31761;BME280;18335;51.486;7.562;2023-05-19T01:46:24;101226.66;;;5.81;100.00
31761;BME280;18335;51.486;7.562;2023-05-19T01:48:52;101216.56;;;5.83;100.00
31761;BME280;18335;51.486;7.562;2023-05-19T01:51:19;101222.56;;;5.76;100.00
31761;BME280;18335;51.486;7.562;2023-05-19T01:53:46;101226.22;;;5.75;100.00
31761;BME280;18335;51.486;7.562;2023-05-19T01:56:15;101219.50;;;5.68;100.00
31761;BME280;18335;51.486;7.562;2023-05-19T01:58:50;101213.78;;;5.59;100.00
31761;BME280;18335;51.486;7.562;2023-05-19T02:01:27;101231.22;;;5.55;100.00
31761;BME280;18335;51.486;7.562;2023-05-19T02:04:12;101227.88;;;5.52;100.00
31761;BME280;18335;51.486;7.562;2023-05-19T02:06:44;101232.22;;;5.67;100.00
31761;BME280;18335;51.486;7.562;2023-05-19T02:09:17;101243.03;;;5.67;100.00
31761;BME280;18335;51.486;7.562;2023-05-19T02:11:51;101239.25;;;5.44;100.00
31761;BME280;18335;51.486;7.562;2023-05-19T02:14:29;101239.69;;;5.51;100.00
31761;BME280;18335;51.486;7.562;2023-05-19T02:16:58;101242.16;;;5.41;100.00
31761;BME280;18335;51.486;7.562;2023-05-19T02:19:30;101243.34;;;5.50;100.00
31761;BME280;18335;51.486;7.562;2023-05-19T02:21:57;101239.47;;;5.41;100.00
31761;BME280;18335;51.486;7.562;2023-05-19T02:24:24;101241.28;;;5.41;100.00
31761;BME280;18335;51.486;7.562;2023-05-19T02:26:52;101243.69;;;5.45;100.00
31761;BME280;18335;51.486;7.562;2023-05-19T02:29:19;101236.97;;;5.51;100.00
31761;BME280;18335;51.486;7.562;2023-05-19T02:31:46;101244.00;;;5.53;100.00
31761;BME280;18335;51.486;7.562;2023-05-19T02:34:13;101243.59;;;5.34;100.00
31761;BME280;18335;51.486;7.562;2023-05-19T02:36:42;101236.88;;;5.27;100.00
31761;BME280;18335;51.486;7.562;2023-05-19T02:39:09;101246.16;;;5.23;100.00
31761;BME280;18335;51.486;7.562;2023-05-19T02:41:36;101246.38;;;5.20;100.00
31761;BME280;18335;51.486;7.562;2023-05-19T02:44:03;101239.47;;;5.16;100.00
31761;BME280;18335;51.486;7.562;2023-05-19T02:46:31;101248.75;;;5.12;100.00
31761;BME280;18335;51.486;7.562;2023-05-19T02:48:58;101230.72;;;5.25;100.00
31761;BME280;18335;51.486;7.562;2023-05-19T02:51:24;101238.16;;;5.09;100.00
31761;BME280;18335;51.486;7.562;2023-05-19T02:53:52;101231.88;;;5.21;100.00
31761;BME280;18335;51.486;7.562;2023-05-19T02:56:19;101236.19;;;5.11;100.00
31761;BME280;18335;51.486;7.562;2023-05-19T02:58:46;101238.81;;;5.13;100.00
31761;BME280;18335;51.486;7.562;2023-05-19T03:01:14;101242.16;;;5.03;100.00
31761;BME280;18335;51.486;7.562;2023-05-19T03:03:40;101243.34;;;5.12;100.00
31761;BME280;18335;51.486;7.562;2023-05-19T03:06:07;101245.25;;;4.85;100.00
31761;BME280;18335;51.486;7.562;2023-05-19T03:08:34;101241.81;;;5.08;100.00
31761;BME280;18335;51.486;7.562;2023-05-19T03:11:02;101243.22;;;5.01;100.00
31761;BME280;18335;51.486;7.562;2023-05-19T03:13:29;101234.88;;;4.91;100.00
31761;BME280;18335;51.486;7.562;2023-05-19T03:15:56;101237.69;;;5.02;100.00
31761;BME280;18335;51.486;7.562;2023-05-19T03:18:24;101229.94;;;4.98;100.00
31761;BME280;18335;51.486;7.562;2023-05-19T03:20:51;101233.38;;;5.00;100.00
31761;BME280;18335;51.486;7.562;2023-05-19T03:23:19;101232.78;;;4.70;100.00
31761;BME280;18335;51.486;7.562;2023-05-19T03:25:46;101231.31;;;4.91;100.00
31761;BME280;18335;51.486;7.562;2023-05-19T03:28:15;101226.84;;;4.90;100.00
31761;BME280;18335;51.486;7.562;2023-05-19T03:30:42;101228.16;;;4.84;100.00
31761;BME280;18335;51.486;7.562;2023-05-19T03:33:17;101226.63;;;4.68;100.00
31761;BME280;18335;51.486;7.562;2023-05-19T03:35:44;101230.19;;;4.68;100.00
31761;BME280;18335;51.486;7.562;2023-05-19T03:38:11;101237.00;;;4.74;100.00
31761;BME280;18335;51.486;7.562;2023-05-19T03:40:43;101237.44;;;4.68;100.00
31761;BME280;18335;51.486;7.562;2023-05-19T03:43:10;101236.38;;;4.83;100.00
31761;BME280;18335;51.486;7.562;2023-05-19T03:45:45;101244.38;;;4.72;100.00
31761;BME280;18335;51.486;7.562;2023-05-19T03:48:31;101248.28;;;4.80;100.00
31761;BME280;18335;51.486;7.562;2023-05-19T03:51:34;101249.78;;;4.72;100.00
31761;BME280;18335;51.486;7.562;2023-05-19T03:54:20;101248.28;;;4.80;100.00
31761;BME280;18335;51.486;7.562;2023-05-19T03:56:48;101246.56;;;4.92;100.00
31761;BME280;18335;51.486;7.562;2023-05-19T03:59:14;101246.16;;;4.98;100.00
31761;BME280;18335;51.486;7.562;2023-05-19T04:01:43;101244.53;;;4.95;100.00
31761;BME280;18335;51.486;7.562;2023-05-19T04:04:10;101245.31;;;5.10;100.00
31761;BME280;18335;51.486;7.562;2023-05-19T04:06:37;101241.81;;;5.08;100.00
31761;BME280;18335;51.486;7.562;2023-05-19T04:09:10;101243.06;;;5.17;100.00
31761;BME280;18335;51.486;7.562;2023-05-19T04:11:38;101244.47;;;5.22;100.00
31761;BME280;18335;51.486;7.562;2023-05-19T04:14:05;101241.84;;;5.21;100.00
31761;BME280;18335;51.486;7.562;2023-05-19T04:16:31;101242.94;;;5.43;100.00
31761;BME280;18335;51.486;7.562;2023-05-19T04:19:00;101246.19;;;5.36;100.00
31761;BME280;18335;51.486;7.562;2023-05-19T04:21:26;101236.66;;;5.43;100.00
31761;BME280;18335;51.486;7.562;2023-05-19T04:23:53;101246.94;;;5.50;100.00
31761;BME280;18335;51.486;7.562;2023-05-19T04:26:20;101245.31;;;5.61;100.00
31761;BME280;18335;51.486;7.562;2023-05-19T04:28:49;101239.97;;;5.72;100.00
31761;BME280;18335;51.486;7.562;2023-05-19T04:31:16;101236.94;;;5.89;100.00
31761;BME280;18335;51.486;7.562;2023-05-19T04:33:45;101246.06;;;5.75;100.00
31761;BME280;18335;51.486;7.562;2023-05-19T04:36:13;101245.94;;;5.77;100.00
31761;BME280;18335;51.486;7.562;2023-05-19T04:38:43;101240.22;;;5.94;100.00
31761;BME280;18335;51.486;7.562;2023-05-19T04:41:11;101236.06;;;6.01;100.00
31761;BME280;18335;51.486;7.562;2023-05-19T04:43:39;101243.91;;;6.29;100.00
31761;BME280;18335;51.486;7.562;2023-05-19T04:46:10;101240.44;;;6.27;100.00
31761;BME280;18335;51.486;7.562;2023-05-19T04:48:38;101238.66;;;6.39;100.00
31761;BME280;18335;51.486;7.562;2023-05-19T04:51:05;101235.81;;;6.40;100.00
31761;BME280;18335;51.486;7.562;2023-05-19T04:53:33;101241.38;;;6.62;100.00
31761;BME280;18335;51.486;7.562;2023-05-19T04:56:01;101243.03;;;6.76;100.00
31761;BME280;18335;51.486;7.562;2023-05-19T04:58:30;101241.63;;;6.94;100.00
31761;BME280;18335;51.486;7.562;2023-05-19T05:00:56;101247.28;;;6.91;100.00
31761;BME280;18335;51.486;7.562;2023-05-19T05:03:23;101245.00;;;7.09;100.00
31761;BME280;18335;51.486;7.562;2023-05-19T05:05:50;101245.53;;;7.25;100.00
31761;BME280;18335;51.486;7.562;2023-05-19T05:08:18;101236.78;;;7.44;100.00
31761;BME280;18335;51.486;7.562;2023-05-19T05:10:50;101238.53;;;7.45;100.00
31761;BME280;18335;51.486;7.562;2023-05-19T05:13:22;101237.66;;;7.33;100.00
31761;BME280;18335;51.486;7.562;2023-05-19T05:15:49;101242.13;;;7.78;100.00
31761;BME280;18335;51.486;7.562;2023-05-19T05:18:17;101247.47;;;7.91;100.00
31761;BME280;18335;51.486;7.562;2023-05-19T05:20:45;101239.75;;;8.07;100.00
31761;BME280;18335;51.486;7.562;2023-05-19T05:23:14;101242.72;;;8.15;100.00
31761;BME280;18335;51.486;7.562;2023-05-19T05:25:43;101240.88;;;8.27;100.00
31761;BME280;18335;51.486;7.562;2023-05-19T05:28:13;101243.84;;;8.35;100.00
31761;BME280;18335;51.486;7.562;2023-05-19T05:30:41;101236.13;;;8.51;100.00
31761;BME280;18335;51.486;7.562;2023-05-19T05:33:08;101235.84;;;8.65;100.00
31761;BME280;18335;51.486;7.562;2023-05-19T05:35:37;101238.25;;;8.79;100.00
31761;BME280;18335;51.486;7.562;2023-05-19T05:38:05;101236.88;;;8.85;100.00
31761;BME280;18335;51.486;7.562;2023-05-19T05:40:33;101241.38;;;8.75;100.00
31761;BME280;18335;51.486;7.562;2023-05-19T05:43:00;101234.09;;;8.96;100.00
31761;BME280;18335;51.486;7.562;2023-05-19T05:45:31;101230.47;;;9.07;100.00
31761;BME280;18335;51.486;7.562;2023-05-19T05:48:00;101229.13;;;9.22;100.00
31761;BME280;18335;51.486;7.562;2023-05-19T05:50:27;101232.59;;;9.24;100.00
31761;BME280;18335;51.486;7.562;2023-05-19T05:52:55;101224.94;;;9.38;100.00
31761;BME280;18335;51.486;7.562;2023-05-19T05:55:24;101222.28;;;9.48;100.00
31761;BME280;18335;51.486;7.562;2023-05-19T05:57:51;101231.66;;;9.55;100.00
31761;BME280;18335;51.486;7.562;2023-05-19T06:00:19;101229.81;;;9.65;100.00
31761;BME280;18335;51.486;7.562;2023-05-19T06:02:52;101228.59;;;9.79;100.00
31761;BME280;18335;51.486;7.562;2023-05-19T06:05:19;101226.25;;;10.05;100.00
31761;BME280;18335;51.486;7.562;2023-05-19T06:07:47;101221.34;;;9.98;100.00
31761;BME280;18335;51.486;7.562;2023-05-19T06:10:19;101226.41;;;10.13;100.00
31761;BME280;18335;51.486;7.562;2023-05-19T06:12:48;101227.94;;;10.26;100.00
31761;BME280;18335;51.486;7.562;2023-05-19T06:15:14;101221.22;;;10.40;100.00
31761;BME280;18335;51.486;7.562;2023-05-19T06:18:21;101219.03;;;10.34;100.00
31761;BME280;18335;51.486;7.562;2023-05-19T06:20:48;101224.78;;;10.31;100.00
31761;BME280;18335;51.486;7.562;2023-05-19T06:23:15;101220.09;;;10.62;100.00
31761;BME280;18335;51.486;7.562;2023-05-19T06:25:42;101216.25;;;10.74;100.00
31761;BME280;18335;51.486;7.562;2023-05-19T06:28:09;101215.97;;;10.86;100.00
31761;BME280;18335;51.486;7.562;2023-05-19T06:30:36;101217.25;;;10.82;100.00
31761;BME280;18335;51.486;7.562;2023-05-19T06:33:19;101218.69;;;10.86;100.00
31761;BME280;18335;51.486;7.562;2023-05-19T06:35:47;101209.94;;;10.92;100.00
31761;BME280;18335;51.486;7.562;2023-05-19T06:38:14;101223.44;;;11.03;100.00
31761;BME280;18335;51.486;7.562;2023-05-19T06:40:41;101215.53;;;11.10;100.00
31761;BME280;18335;51.486;7.562;2023-05-19T06:43:08;101210.63;;;11.04;100.00
31761;BME280;18335;51.486;7.562;2023-05-19T06:45:52;101215.06;;;11.34;100.00
31761;BME280;18335;51.486;7.562;2023-05-19T06:48:20;101210.16;;;11.28;100.00
31761;BME280;18335;51.486;7.562;2023-05-19T06:50:48;101208.13;;;11.49;100.00
31761;BME280;18335;51.486;7.562;2023-05-19T06:53:18;101212.69;;;11.58;100.00
31761;BME280;18335;51.486;7.562;2023-05-19T06:55:46;101204.31;;;11.79;100.00
31761;BME280;18335;51.486;7.562;2023-05-19T06:58:16;101195.63;;;11.83;100.00
31761;BME280;18335;51.486;7.562;2023-05-19T07:00:42;101207.41;;;11.93;100.00
31761;BME280;18335;51.486;7.562;2023-05-19T07:03:12;101203.50;;;11.96;100.00
31761;BME280;18335;51.486;7.562;2023-05-19T07:05:38;101198.28;;;12.02;100.00
31761;BME280;18335;51.486;7.562;2023-05-19T07:08:06;101202.56;;;12.14;100.00
31761;BME280;18335;51.486;7.562;2023-05-19T07:10:34;101206.06;;;12.52;100.00
31761;BME280;18335;51.486;7.562;2023-05-19T07:13:06;101203.16;;;12.36;100.00
31761;BME280;18335;51.486;7.562;2023-05-19T07:15:35;101196.34;;;12.40;100.00
31761;BME280;18335;51.486;7.562;2023-05-19T07:18:02;101203.41;;;12.60;100.00
31761;BME280;18335;51.486;7.562;2023-05-19T07:20:29;101188.69;;;12.78;100.00
31761;BME280;18335;51.486;7.562;2023-05-19T07:22:56;101193.03;;;12.81;100.00
31761;BME280;18335;51.486;7.562;2023-05-19T07:25:24;101190.44;;;12.80;100.00
31761;BME280;18335;51.486;7.562;2023-05-19T07:27:53;101185.56;;;12.91;100.00
31761;BME280;18335;51.486;7.562;2023-05-19T07:30:20;101180.47;;;12.96;100.00
31761;BME280;18335;51.486;7.562;2023-05-19T07:32:47;101182.59;;;13.20;100.00
31761;BME280;18335;51.486;7.562;2023-05-19T07:35:13;101179.06;;;13.27;100.00
31761;BME280;18335;51.486;7.562;2023-05-19T07:37:40;101184.34;;;13.29;100.00
31761;BME280;18335;51.486;7.562;2023-05-19T07:40:07;101183.06;;;13.41;100.00
31761;BME280;18335;51.486;7.562;2023-05-19T07:42:36;101180.56;;;13.48;100.00
31761;BME280;18335;51.486;7.562;2023-05-19T07:45:03;101186.03;;;13.48;100.00
31761;BME280;18335;51.486;7.562;2023-05-19T07:47:30;101188.13;;;13.54;100.00
31761;BME280;18335;51.486;7.562;2023-05-19T07:49:57;101180.69;;;13.72;100.00
31761;BME280;18335;51.486;7.562;2023-05-19T07:52:24;101176.28;;;13.79;100.00
31761;BME280;18335;51.486;7.562;2023-05-19T07:54:51;101177.63;;;13.75;100.00
31761;BME280;18335;51.486;7.562;2023-05-19T07:57:18;101177.25;;;14.04;100.00
31761;BME280;18335;51.486;7.562;2023-05-19T07:59:46;101167.75;;;14.24;100.00
31761;BME280;18335;51.486;7.562;2023-05-19T08:02:13;101175.78;;;14.17;100.00
31761;BME280;18335;51.486;7.562;2023-05-19T08:04:40;101164.47;;;14.28;100.00
31761;BME280;18335;51.486;7.562;2023-05-19T08:07:07;101171.41;;;14.32;100.00
31761;BME280;18335;51.486;7.562;2023-05-19T08:09:33;101173.50;;;14.47;100.00
31761;BME280;18335;51.486;7.562;2023-05-19T08:12:00;101168.38;;;14.68;100.00
31761;BME280;18335;51.486;7.562;2023-05-19T08:14:29;101159.97;;;14.69;100.00
31761;BME280;18335;51.486;7.562;2023-05-19T08:16:59;101161.34;;;14.65;100.00
31761;BME280;18335;51.486;7.562;2023-05-19T08:19:25;101164.28;;;14.96;100.00
31761;BME280;18335;51.486;7.562;2023-05-19T08:21:52;101160.88;;;15.02;100.00
31761;BME280;18335;51.486;7.562;2023-05-19T08:24:20;101162.53;;;14.71;100.00
31761;BME280;18335;51.486;7.562;2023-05-19T08:26:46;101164.19;;;14.39;100.00
31761;BME280;18335;51.486;7.562;2023-05-19T08:29:13;101153.44;;;14.62;100.00
31761;BME280;18335;51.486;7.562;2023-05-19T08:31:40;101153.09;;;14.81;100.00
31761;BME280;18335;51.486;7.562;2023-05-19T08:34:08;101152.22;;;14.65;100.00
31761;BME280;18335;51.486;7.562;2023-05-19T08:36:35;101149.50;;;14.89;100.00
31761;BME280;18335;51.486;7.562;2023-05-19T08:39:02;101134.56;;;15.00;100.00
31761;BME280;18335;51.486;7.562;2023-05-19T08:41:29;101136.44;;;15.31;100.00
31761;BME280;18335;51.486;7.562;2023-05-19T08:43:55;101140.19;;;15.46;100.00
31761;BME280;18335;51.486;7.562;2023-05-19T08:46:24;101124.06;;;15.19;100.00
31761;BME280;18335;51.486;7.562;2023-05-19T08:48:53;101125.53;;;15.62;100.00
31761;BME280;18335;51.486;7.562;2023-05-19T08:51:27;101125.38;;;15.64;100.00
31761;BME280;18335;51.486;7.562;2023-05-19T08:54:05;101115.16;;;15.88;100.00
31761;BME280;18335;51.486;7.562;2023-05-19T08:56:34;101121.97;;;15.37;100.00
31761;BME280;18335;51.486;7.562;2023-05-19T08:59:02;101102.72;;;15.37;100.00
31761;BME280;18335;51.486;7.562;2023-05-19T09:01:29;101106.78;;;15.66;100.00
31761;BME280;18335;51.486;7.562;2023-05-19T09:03:57;101106.69;;;15.90;100.00
31761;BME280;18335;51.486;7.562;2023-05-19T09:06:25;101107.47;;;16.37;100.00
31761;BME280;18335;51.486;7.562;2023-05-19T09:08:52;101095.72;;;16.43;100.00
31761;BME280;18335;51.486;7.562;2023-05-19T09:11:19;101095.19;;;16.17;100.00
31761;BME280;18335;51.486;7.562;2023-05-19T09:13:47;101101.00;;;16.22;100.00
31761;BME280;18335;51.486;7.562;2023-05-19T09:16:14;101090.06;;;16.14;100.00
31761;BME280;18335;51.486;7.562;2023-05-19T09:18:52;101087.09;;;16.46;100.00
31761;BME280;18335;51.486;7.562;2023-05-19T09:21:19;101093.88;;;16.36;100.00
31761;BME280;18335;51.486;7.562;2023-05-19T09:23:48;101090.56;;;16.40;100.00
31761;BME280;18335;51.486;7.562;2023-05-19T09:26:15;101088.47;;;16.20;100.00
31761;BME280;18335;51.486;7.562;2023-05-19T09:28:42;101091.16;;;16.28;100.00
31761;BME280;18335;51.486;7.562;2023-05-19T09:31:09;101087.75;;;16.56;99.33
31761;BME280;18335;51.486;7.562;2023-05-19T09:33:37;101085.56;;;16.89;100.00
31761;BME280;18335;51.486;7.562;2023-05-19T09:36:05;101076.69;;;16.79;100.00
31761;BME280;18335;51.486;7.562;2023-05-19T09:38:33;101076.63;;;16.87;100.00
31761;BME280;18335;51.486;7.562;2023-05-19T09:41:03;101069.16;;;16.96;100.00
31761;BME280;18335;51.486;7.562;2023-05-19T09:43:31;101064.59;;;17.17;100.00
31761;BME280;18335;51.486;7.562;2023-05-19T09:45:59;101060.63;;;17.20;100.00
31761;BME280;18335;51.486;7.562;2023-05-19T09:48:26;101057.63;;;16.92;91.50
31761;BME280;18335;51.486;7.562;2023-05-19T09:50:53;101063.25;;;16.99;100.00
31761;BME280;18335;51.486;7.562;2023-05-19T09:53:21;101060.22;;;17.08;91.32
31761;BME280;18335;51.486;7.562;2023-05-19T09:55:53;101060.03;;;17.10;100.00
31761;BME280;18335;51.486;7.562;2023-05-19T09:58:22;101052.44;;;17.12;97.24
31761;BME280;18335;51.486;7.562;2023-05-19T10:00:49;101058.19;;;17.02;97.57
31761;BME280;18335;51.486;7.562;2023-05-19T10:03:17;101056.44;;;17.24;97.74
31761;BME280;18335;51.486;7.562;2023-05-19T10:05:44;101054.06;;;17.21;100.00
31761;BME280;18335;51.486;7.562;2023-05-19T10:08:12;101035.72;;;17.57;100.00
31761;BME280;18335;51.486;7.562;2023-05-19T10:10:44;101049.69;;;17.41;96.02
31761;BME280;18335;51.486;7.562;2023-05-19T10:13:11;101047.88;;;17.48;100.00
31761;BME280;18335;51.486;7.562;2023-05-19T10:15:40;101037.72;;;17.34;94.81
31761;BME280;18335;51.486;7.562;2023-05-19T10:18:08;101032.94;;;17.72;97.16
31761;BME280;18335;51.486;7.562;2023-05-19T10:20:35;101033.91;;;17.79;95.57
31761;BME280;18335;51.486;7.562;2023-05-19T10:23:02;101031.13;;;17.35;92.73
31761;BME280;18335;51.486;7.562;2023-05-19T10:25:29;101038.38;;;17.36;93.89
31761;BME280;18335;51.486;7.562;2023-05-19T10:28:01;101039.22;;;17.37;98.59
31761;BME280;18335;51.486;7.562;2023-05-19T10:30:32;101034.81;;;17.86;100.00
31761;BME280;18335;51.486;7.562;2023-05-19T10:33:02;101043.09;;;18.22;92.79
31761;BME280;18335;51.486;7.562;2023-05-19T10:35:53;101047.03;;;18.13;100.00
31761;BME280;18335;51.486;7.562;2023-05-19T10:38:31;101045.09;;;17.92;95.96
31761;BME280;18335;51.486;7.562;2023-05-19T10:41:06;101042.06;;;18.23;94.23
31761;BME280;18335;51.486;7.562;2023-05-19T10:43:43;101035.78;;;18.50;100.00
31761;BME280;18335;51.486;7.562;2023-05-19T10:46:13;101032.47;;;18.40;100.00
31761;BME280;18335;51.486;7.562;2023-05-19T10:48:44;101033.59;;;18.24;97.28
31761;BME280;18335;51.486;7.562;2023-05-19T10:51:13;101024.75;;;18.50;98.81
31761;BME280;18335;51.486;7.562;2023-05-19T10:53:41;101021.00;;;18.43;96.17
31761;BME280;18335;51.486;7.562;2023-05-19T10:56:11;101024.31;;;18.32;100.00
31761;BME280;18335;51.486;7.562;2023-05-19T10:58:53;101027.31;;;18.16;97.22
31761;BME280;18335;51.486;7.562;2023-05-19T11:01:20;101024.53;;;18.16;100.00
31761;BME280;18335;51.486;7.562;2023-05-19T11:03:51;101025.31;;;18.10;100.00
31761;BME280;18335;51.486;7.562;2023-05-19T11:06:19;101019.66;;;18.33;100.00
31761;BME280;18335;51.486;7.562;2023-05-19T11:08:51;101018.72;;;17.90;98.30
31761;BME280;18335;51.486;7.562;2023-05-19T11:11:18;101018.69;;;18.04;100.00
31761;BME280;18335;51.486;7.562;2023-05-19T11:13:46;101016.94;;;18.18;94.35
31761;BME280;18335;51.486;7.562;2023-05-19T11:16:13;101007.19;;;18.43;93.73
31761;BME280;18335;51.486;7.562;2023-05-19T11:18:40;101002.47;;;18.58;93.68
31761;BME280;18335;51.486;7.562;2023-05-19T11:21:08;101013.03;;;18.69;97.00
31761;BME280;18335;51.486;7.562;2023-05-19T11:23:37;101011.03;;;18.21;100.00
31761;BME280;18335;51.486;7.562;2023-05-19T11:26:05;101001.78;;;17.93;100.00
31761;BME280;18335;51.486;7.562;2023-05-19T11:28:33;101014.47;;;18.65;100.00
31761;BME280;18335;51.486;7.562;2023-05-19T11:31:01;100998.59;;;19.36;97.37
31761;BME280;18335;51.486;7.562;2023-05-19T11:33:28;101010.13;;;19.05;86.34
31761;BME280;18335;51.486;7.562;2023-05-19T11:35:57;101006.88;;;18.74;88.99
31761;BME280;18335;51.486;7.562;2023-05-19T11:38:27;101006.53;;;18.84;79.31
31761;BME280;18335;51.486;7.562;2023-05-19T11:40:54;100992.56;;;18.92;89.48
31761;BME280;18335;51.486;7.562;2023-05-19T11:43:22;100988.88;;;19.12;85.56
31761;BME280;18335;51.486;7.562;2023-05-19T11:45:49;100982.00;;;19.02;81.82
31761;BME280;18335;51.486;7.562;2023-05-19T11:48:19;100984.47;;;18.90;86.44
31761;BME280;18335;51.486;7.562;2023-05-19T11:50:46;100988.19;;;19.38;89.98
31761;BME280;18335;51.486;7.562;2023-05-19T11:53:14;100984.69;;;19.29;84.66
31761;BME280;18335;51.486;7.562;2023-05-19T11:55:44;100974.50;;;18.96;76.60
31761;BME280;18335;51.486;7.562;2023-05-19T11:58:11;100988.06;;;19.18;82.12
31761;BME280;18335;51.486;7.562;2023-05-19T12:00:39;100981.53;;;19.32;90.79
31761;BME280;18335;51.486;7.562;2023-05-19T12:03:06;100981.78;;;19.38;71.62
31761;BME280;18335;51.486;7.562;2023-05-19T12:05:35;100977.53;;;19.35;80.12
31761;BME280;18335;51.486;7.562;2023-05-19T12:08:03;100982.06;;;19.97;77.70
31761;BME280;18335;51.486;7.562;2023-05-19T12:10:31;100974.00;;;19.54;80.11
31761;BME280;18335;51.486;7.562;2023-05-19T12:13:01;100967.78;;;19.93;74.82
31761;BME280;18335;51.486;7.562;2023-05-19T12:15:30;100968.00;;;19.92;70.54
31761;BME280;18335;51.486;7.562;2023-05-19T12:18:00;100965.84;;;19.87;75.59
31761;BME280;18335;51.486;7.562;2023-05-19T12:20:28;100962.28;;;20.19;76.67
31761;BME280;18335;51.486;7.562;2023-05-19T12:22:57;100956.44;;;19.81;65.62
31761;BME280;18335;51.486;7.562;2023-05-19T12:25:24;100949.50;;;20.12;73.17
31761;BME280;18335;51.486;7.562;2023-05-19T12:27:56;100942.28;;;20.37;68.85
31761;BME280;18335;51.486;7.562;2023-05-19T12:30:26;100940.97;;;20.20;62.43
31761;BME280;18335;51.486;7.562;2023-05-19T12:32:54;100953.47;;;19.89;71.18
31761;BME280;18335;51.486;7.562;2023-05-19T12:35:25;100947.78;;;20.11;67.54
31761;BME280;18335;51.486;7.562;2023-05-19T12:37:52;100931.41;;;20.16;66.17
31761;BME280;18335;51.486;7.562;2023-05-19T12:40:20;100930.38;;;20.56;66.73
31761;BME280;18335;51.486;7.562;2023-05-19T12:42:47;100930.56;;;20.35;57.95
31761;BME280;18335;51.486;7.562;2023-05-19T12:45:19;100926.31;;;20.46;61.91
31761;BME280;18335;51.486;7.562;2023-05-19T12:47:49;100928.63;;;20.88;66.33
31761;BME280;18335;51.486;7.562;2023-05-19T12:50:17;100916.44;;;21.09;70.71
31761;BME280;18335;51.486;7.562;2023-05-19T12:52:45;100919.09;;;21.41;55.39
31761;BME280;18335;51.486;7.562;2023-05-19T12:55:13;100924.16;;;20.93;60.49
31761;BME280;18335;51.486;7.562;2023-05-19T12:57:42;100918.97;;;21.23;76.25
31761;BME280;18335;51.486;7.562;2023-05-19T13:00:13;100923.03;;;21.08;60.72
31761;BME280;18335;51.486;7.562;2023-05-19T13:02:57;100927.25;;;21.36;58.46